Time;durP1;ratioP1;P1;durP2;ratioP2;P2;SDS_P1;SDS_P2;PMS_P1;PMS_P2;Temp;Humidity;BMP_temperature;BMP_pressure;BME280_temperature;BME280_humidity;BME280_pressure;Samples;Min_cycle;Max_cycle;Signal;HPM_P1;HPM_P2
2022/03/19 00:01:23;;;;;;;37.85;15.50;;;;;;;1.77;76.89;100268.34;4425836;32;20383;-75
2022/03/19 00:03:51;;;;;;;34.90;15.13;;;;;;;1.60;77.84;100264.50;4425155;32;20082;-74
2022/03/19 00:06:18;;;;;;;31.45;15.23;;;;;;;0.96;80.60;100257.47;4425692;32;20163;-75
2022/03/19 00:08:45;;;;;;;;;;;;;;;0.87;81.66;100260.59;4426021;32;20086;-76
2022/03/19 00:11:12;;;;;;;32.03;14.95;;;;;;;1.36;79.45;100257.00;4425663;32;20029;-75
2022/03/19 00:13:39;;;;;;;32.17;13.85;;;;;;;1.86;77.75;100257.56;4425672;32;20074;-75
2022/03/19 00:16:06;;;;;;;;;;;;;;;1.43;79.29;100261.44;4426009;32;20145;-75
2022/03/19 00:18:34;;;;;;;35.97;14.60;;;;;;;1.50;79.27;100257.41;4425503;32;19993;-75
2022/03/19 00:21:01;;;;;;;36.67;15.63;;;;;;;1.70;78.51;100251.16;4425603;32;20090;-75
2022/03/19 00:23:28;;;;;;;31.27;13.70;;;;;;;1.98;77.60;100257.91;4425298;32;20121;-75
2022/03/19 00:25:55;;;;;;;;;;;;;;;2.22;76.42;100252.56;4425938;32;20141;-75
2022/03/19 00:28:22;;;;;;;33.17;14.95;;;;;;;2.15;76.62;100251.56;4425886;32;20045;-75
2022/03/19 00:30:54;;;;;;;34.70;15.35;;;;;;;2.20;76.55;100250.00;4425186;32;20130;-75
2022/03/19 00:33:22;;;;;;;34.97;14.40;;;;;;;2.25;77.02;100250.13;4425738;32;20517;-75
2022/03/19 00:35:48;;;;;;;35.55;14.85;;;;;;;2.54;76.11;100249.16;4425674;32;20094;-75
2022/03/19 00:38:16;;;;;;;37.47;14.75;;;;;;;2.55;75.96;100245.81;4425206;32;20145;-75
2022/03/19 00:40:43;;;;;;;30.90;14.35;;;;;;;2.71;74.94;100247.03;4425431;32;20112;-75
2022/03/19 00:43:10;;;;;;;;;;;;;;;3.10;73.66;100243.69;4425904;32;20424;-75
2022/03/19 00:45:37;;;;;;;31.58;14.75;;;;;;;3.26;73.01;100248.25;4425009;32;19980;-75
2022/03/19 00:48:04;;;;;;;34.95;15.15;;;;;;;3.10;73.75;100247.09;4425136;32;20638;-75
2022/03/19 00:50:31;;;;;;;36.60;16.02;;;;;;;3.60;72.16;100248.97;4425367;32;20648;-75
2022/03/19 00:52:58;;;;;;;33.13;15.48;;;;;;;3.93;71.46;100234.31;4425091;32;20107;-75
2022/03/19 00:55:25;;;;;;;;;;;;;;;3.76;72.54;100228.03;4425760;32;20109;-75
2022/03/19 00:57:52;;;;;;;30.45;12.98;;;;;;;3.67;73.37;100231.25;4425610;32;20028;-75
2022/03/19 01:00:22;;;;;;;;;;;;;;;3.68;74.49;100221.91;4425252;32;20094;-75
2022/03/19 01:02:48;;;;;;;29.08;13.30;;;;;;;4.09;73.10;100219.28;4425225;32;19993;-75
2022/03/19 01:05:17;;;;;;;32.53;15.05;;;;;;;3.96;73.19;100213.94;4425486;32;20381;-75
2022/03/19 01:07:48;;;;;;;33.83;14.70;;;;;;;3.90;73.54;100213.81;4425153;32;20141;-75
2022/03/19 01:10:20;;;;;;;33.45;14.90;;;;;;;4.28;72.28;100217.06;4425315;32;20164;-75
2022/03/19 01:12:51;;;;;;;32.08;15.02;;;;;;;4.30;71.81;100217.09;4425054;32;20528;-75
2022/03/19 01:15:18;;;;;;;31.02;14.77;;;;;;;4.53;70.71;100215.78;4425413;32;20444;-75
2022/03/19 01:17:45;;;;;;;30.55;14.32;;;;;;;4.55;70.58;100211.53;4425342;32;20113;-75
2022/03/19 01:20:12;;;;;;;;;;;;;;;4.76;69.60;100210.16;4424989;32;20107;-75
2022/03/19 01:22:41;;;;;;;29.83;14.48;;;;;;;4.85;68.99;100210.28;4424174;32;19973;-75
2022/03/19 01:25:09;;;;;;;30.35;14.23;;;;;;;4.91;68.28;100207.84;4425206;32;20145;-75
2022/03/19 01:27:37;;;;;;;31.00;14.13;;;;;;;5.03;67.53;100200.34;4424871;32;20102;-75
2022/03/19 01:30:06;;;;;;;32.05;14.87;;;;;;;5.25;66.47;100201.47;4425224;32;20121;-75
2022/03/19 01:32:33;;;;;;;30.00;14.13;;;;;;;5.15;66.71;100197.06;4425161;32;20157;-75
2022/03/19 01:35:00;;;;;;;34.17;14.68;;;;;;;5.03;67.12;100200.34;4424914;32;20097;-75
2022/03/19 01:37:27;;;;;;;30.70;14.38;;;;;;;4.90;67.93;100196.75;4425108;32;20085;-75
2022/03/19 01:39:55;;;;;;;31.87;15.02;;;;;;;5.17;67.07;100200.50;4424960;32;20164;-75
2022/03/19 01:42:24;;;;;;;31.33;14.20;;;;;;;5.15;66.88;100185.13;4424634;32;20089;-75
2022/03/19 01:44:52;;;;;;;33.25;14.90;;;;;;;5.07;67.31;100186.72;4425076;32;20094;-75
2022/03/19 01:47:20;;;;;;;30.85;14.80;;;;;;;5.14;66.60;100185.13;4423915;32;20144;-75
2022/03/19 01:49:47;;;;;;;29.85;14.30;;;;;;;5.28;65.59;100180.16;4423430;32;20176;-75
2022/03/19 01:52:15;;;;;;;30.27;14.63;;;;;;;5.48;64.81;100176.16;4424929;32;20436;-75
2022/03/19 01:54:44;;;;;;;33.15;14.40;;;;;;;5.37;65.15;100175.16;4424711;32;20743;-75
2022/03/19 01:57:15;;;;;;;30.65;14.05;;;;;;;5.42;64.41;100174.41;4424770;32;20141;-75
2022/03/19 01:59:43;;;;;;;31.30;14.75;;;;;;;5.78;63.39;100171.38;4423728;32;20443;-75
2022/03/19 02:02:13;;;;;;;28.83;14.10;;;;;;;5.62;63.74;100168.63;4424401;32;20280;-75
2022/03/19 02:04:41;;;;;;;32.80;13.95;;;;;;;5.94;62.73;100166.41;4424700;32;20797;-75
2022/03/19 02:07:10;;;;;;;32.92;14.75;;;;;;;5.91;62.63;100167.25;4424815;32;20432;-75
2022/03/19 02:09:38;;;;;;;30.42;14.75;;;;;;;5.64;63.02;100161.84;4424317;32;20488;-75
2022/03/19 02:12:06;;;;;;;28.10;14.18;;;;;;;5.40;64.31;100168.38;4424692;32;20105;-75
2022/03/19 02:14:37;;;;;;;31.08;15.05;;;;;;;5.44;63.89;100161.63;4424701;32;20539;-75
2022/03/19 02:17:05;;;;;;;29.17;13.50;;;;;;;5.34;64.58;100162.34;4424530;32;20560;-75
2022/03/19 02:19:33;;;;;;;30.23;14.15;;;;;;;5.15;64.96;100158.69;4424469;32;20090;-75
2022/03/19 02:22:00;;;;;;;30.10;15.43;;;;;;;5.33;64.32;100163.19;4424550;32;20074;-75
2022/03/19 02:27:13;;;;;;;34.65;15.52;;;;;;;4.82;66.43;100154.00;4424700;32;20111;-75
2022/03/19 02:29:40;;;;;;;37.58;16.60;;;;;;;4.59;67.32;100151.09;4423007;32;20148;-75
2022/03/19 02:32:07;;;;;;;34.47;16.52;;;;;;;4.91;66.46;100149.84;4424470;32;20491;-75
2022/03/19 02:34:34;;;;;;;36.83;15.70;;;;;;;4.85;66.66;100151.47;4424415;32;20108;-75
2022/03/19 02:37:02;;;;;;;36.45;17.27;;;;;;;4.65;67.60;100153.72;4424132;32;20573;-75
2022/03/19 02:39:33;;;;;;;34.15;15.60;;;;;;;4.33;68.81;100149.00;4424304;32;20432;-75
2022/03/19 02:42:01;;;;;;;33.35;16.00;;;;;;;4.58;68.49;100151.94;4424369;32;20074;-75
2022/03/19 02:44:29;;;;;;;35.55;15.85;;;;;;;4.69;67.86;100145.28;4423877;32;20141;-75
2022/03/19 02:46:59;;;;;;;32.70;15.40;;;;;;;5.03;66.98;100151.72;4424281;32;20106;-75
2022/03/19 02:49:26;;;;;;;33.42;15.93;;;;;;;4.62;68.26;100149.44;4424156;32;20160;-75
2022/03/19 02:51:54;;;;;;;32.63;15.85;;;;;;;4.72;68.15;100147.03;4423935;32;20465;-75
2022/03/19 02:54:26;;;;;;;33.78;15.45;;;;;;;4.79;68.21;100142.03;4424142;32;20154;-75
2022/03/19 02:56:54;;;;;;;36.67;16.25;;;;;;;5.13;66.32;100143.31;4424187;32;20086;-75
2022/03/19 02:59:23;;;;;;;28.52;13.68;;;;;;;5.27;65.41;100142.63;4422358;32;20157;-75
2022/03/19 03:01:53;;;;;;;29.98;13.32;;;;;;;5.20;65.89;100145.09;4423958;32;20077;-75
2022/03/19 03:04:21;;;;;;;29.17;13.60;;;;;;;5.12;66.11;100138.19;4423676;32;20149;-75
2022/03/19 03:06:50;;;;;;;27.33;13.65;;;;;;;5.08;66.80;100132.16;4423570;32;20146;-75
2022/03/19 03:09:22;;;;;;;27.05;12.85;;;;;;;5.34;65.60;100135.03;4424075;32;20107;-75
2022/03/19 03:11:49;;;;;;;29.02;13.13;;;;;;;5.55;64.74;100131.87;4424669;32;20140;-75
2022/03/19 03:14:20;;;;;;;30.08;13.20;;;;;;;5.83;63.50;100132.97;4426091;32;20153;-75
2022/03/19 03:16:48;;;;;;;27.45;13.30;;;;;;;5.84;63.30;100127.00;4426300;32;20094;-75
2022/03/19 03:19:16;;;;;;;27.20;13.13;;;;;;;5.85;63.34;100130.44;4424493;32;20089;-75
2022/03/19 03:21:43;;;;;;;29.98;13.18;;;;;;;6.01;62.78;100132.34;4426090;32;20078;-75
2022/03/19 03:24:11;;;;;;;27.37;12.60;;;;;;;6.03;62.10;100126.38;4424843;32;20101;-75
2022/03/19 03:26:39;;;;;;;28.17;12.90;;;;;;;5.97;62.21;100128.03;4424486;32;20110;-75
2022/03/19 03:29:07;;;;;;;27.48;12.50;;;;;;;6.26;61.59;100121.44;4425982;32;20180;-75
2022/03/19 03:31:34;;;;;;;28.38;13.02;;;;;;;6.16;61.24;100123.91;4426086;32;20077;-75
2022/03/19 03:34:02;;;;;;;25.08;12.32;;;;;;;6.28;61.15;100129.16;4425654;32;20098;-75
2022/03/19 03:36:29;;;;;;;23.45;10.95;;;;;;;6.60;59.77;100126.81;4426050;32;20094;-75
2022/03/19 03:38:56;;;;;;;28.90;12.75;;;;;;;6.67;59.46;100123.41;4425912;32;20085;-75
2022/03/19 03:41:23;;;;;;;29.20;12.37;;;;;;;6.89;59.01;100119.25;4425575;32;20101;-75
2022/03/19 03:43:50;;;;;;;23.25;11.35;;;;;;;6.45;60.50;100119.00;4425865;32;20113;-75
2022/03/19 03:46:17;;;;;;;22.65;11.57;;;;;;;6.32;60.66;100121.47;4425963;32;20437;-75
2022/03/19 03:48:44;;;;;;;26.50;12.45;;;;;;;6.34;60.71;100111.22;4425365;32;20152;-76
2022/03/19 03:51:12;;;;;;;28.50;13.27;;;;;;;6.65;59.85;100112.28;4426005;32;20432;-75
2022/03/19 03:53:39;;;;;;;27.30;12.82;;;;;;;6.26;60.72;100113.72;4425822;32;20173;-75
2022/03/19 03:56:09;;;;;;;26.90;12.05;;;;;;;6.42;60.17;100109.59;4424416;32;20535;-75
2022/03/19 03:58:36;;;;;;;23.60;11.80;;;;;;;6.42;60.29;100111.28;4425861;32;20081;-75
2022/03/19 04:01:03;;;;;;;27.23;13.10;;;;;;;6.48;59.97;100111.31;4425439;32;20100;-75
2022/03/19 04:03:30;;;;;;;24.73;12.10;;;;;;;6.73;58.98;100108.06;4425472;32;20475;-75
2022/03/19 04:05:57;;;;;;;24.25;11.27;;;;;;;6.32;60.17;100105.25;4425825;32;20138;-75
2022/03/19 04:08:24;;;;;;;24.98;11.98;;;;;;;6.65;59.45;100107.16;4425414;32;20133;-75
2022/03/19 04:10:51;;;;;;;26.35;12.20;;;;;;;6.69;58.93;100096.06;4424474;32;20121;-75
2022/03/19 04:13:18;;;;;;;25.30;12.37;;;;;;;6.65;59.31;100100.31;4425786;32;20212;-75
2022/03/19 04:15:45;;;;;;;28.20;12.60;;;;;;;6.60;59.56;100098.59;4425473;32;20106;-75
2022/03/19 04:18:15;;;;;;;23.40;11.77;;;;;;;6.72;58.77;100097.81;4425771;32;20104;-75
2022/03/19 04:20:42;;;;;;;26.92;12.25;;;;;;;6.64;58.77;100092.63;4424801;32;20145;-75
2022/03/19 04:23:09;;;;;;;24.25;12.35;;;;;;;6.44;59.61;100087.38;4424948;32;20141;-75
2022/03/19 04:25:36;;;;;;;26.30;12.35;;;;;;;6.50;59.27;100094.25;4425709;32;20141;-75
2022/03/19 04:28:04;;;;;;;24.52;11.75;;;;;;;6.94;57.92;100082.53;4425639;32;20082;-75
2022/03/19 04:30:31;;;;;;;27.10;12.20;;;;;;;6.55;59.39;100090.88;4424002;32;20096;-75
2022/03/19 04:33:00;;;;;;;25.75;12.07;;;;;;;6.56;58.68;100087.44;4425678;32;20462;-75
2022/03/19 04:38:16;;;;;;;24.85;12.60;;;;;;;6.97;57.54;100084.22;4425259;32;20406;-75
2022/03/19 04:40:44;;;;;;;23.38;11.65;;;;;;;6.94;57.42;100082.53;4425299;32;20074;-75
2022/03/19 04:43:12;;;;;;;23.20;11.73;;;;;;;7.12;56.84;100083.44;4425260;32;20117;-75
2022/03/19 04:45:40;;;;;;;25.52;11.93;;;;;;;6.84;57.32;100090.16;4425556;32;20432;-76
2022/03/19 04:48:07;;;;;;;25.05;11.85;;;;;;;6.93;57.17;100082.53;4424387;32;20595;-75
2022/03/19 04:50:38;;;;;;;23.00;11.23;;;;;;;6.91;57.13;100079.06;4425032;32;20116;-75
2022/03/19 04:53:06;;;;;;;25.12;12.52;;;;;;;7.22;56.07;100090.31;4425542;32;20160;-75
2022/03/19 04:55:39;;;;;;;26.00;12.18;;;;;;;7.03;57.16;100089.41;4424483;32;20097;-75
2022/03/19 04:58:07;;;;;;;23.08;11.63;;;;;;;7.24;56.61;100086.06;4425215;32;20100;-75
2022/03/19 05:00:36;;;;;;;27.70;13.05;;;;;;;7.40;56.42;100082.66;4425192;32;20164;-75
2022/03/19 05:03:07;;;;;;;25.35;12.30;;;;;;;7.18;56.66;100092.03;4425107;32;20089;-75
2022/03/19 05:05:34;;;;;;;27.50;13.15;;;;;;;7.16;57.54;100088.59;4425100;32;20389;-75
2022/03/19 05:08:03;;;;;;;;;;;;;;;6.94;58.14;100095.34;4425771;32;20099;-75
2022/03/19 05:13:17;;;;;;;26.02;13.48;;;;;;;6.91;58.57;100092.78;4424999;32;20111;-75
2022/03/19 05:15:45;;;;;;;28.05;13.05;;;;;;;7.31;57.53;100085.22;4425358;32;20158;-75
2022/03/19 05:18:12;;;;;;;25.23;11.77;;;;;;;7.57;56.42;100080.16;4425013;32;20093;-75
2022/03/19 05:20:39;;;;;;;26.67;12.90;;;;;;;7.32;56.99;100080.94;4425036;32;20149;-75
2022/03/19 05:23:09;;;;;;;23.90;11.73;;;;;;;7.41;56.67;100086.09;4425276;32;20514;-75
2022/03/19 05:25:36;;;;;;;24.95;12.00;;;;;;;7.20;56.89;100082.59;4425044;32;20132;-75
2022/03/19 05:28:03;;;;;;;24.58;11.90;;;;;;;7.21;57.18;100081.75;4425221;32;20149;-75
2022/03/19 05:30:50;;;;;;;23.25;11.73;;;;;;;6.96;58.06;100083.38;4425074;32;20108;-75
2022/03/19 05:33:18;;;;;;;25.50;12.35;;;;;;;7.04;57.81;100078.28;4424307;32;20098;-75
2022/03/19 05:35:45;;;;;;;26.70;12.07;;;;;;;7.03;57.85;100086.84;4424060;32;20164;-75
2022/03/19 05:38:12;;;;;;;23.62;11.88;;;;;;;6.62;59.58;100086.62;4425274;32;20140;-75
2022/03/19 05:40:39;;;;;;;23.98;11.50;;;;;;;6.28;60.69;100078.75;4424554;32;20586;-75
2022/03/19 05:43:06;;;;;;;26.33;12.07;;;;;;;6.39;60.58;100086.50;4425153;32;20154;-75
2022/03/19 05:45:34;;;;;;;26.67;11.40;;;;;;;6.32;60.65;100080.47;4425143;32;20098;-75
2022/03/19 05:48:01;;;;;;;26.70;12.15;;;;;;;6.30;60.93;100079.59;4424709;32;20541;-75
2022/03/19 05:50:29;;;;;;;27.23;12.20;;;;;;;6.35;60.11;100084.75;4423670;32;20066;-75
2022/03/19 05:52:56;;;;;;;25.35;12.48;;;;;;;5.82;62.35;100077.47;4424968;32;20488;-75
2022/03/19 05:55:23;;;;;;;27.65;12.98;;;;;;;6.16;61.11;100085.47;4424580;32;20172;-75
2022/03/19 05:57:49;;;;;;;24.98;12.35;;;;;;;5.95;62.27;100078.47;4425104;32;20173;-75
2022/03/19 06:00:16;;;;;;;;;;;;;;;6.30;61.02;100078.75;4424695;32;20490;-75
2022/03/19 06:02:44;;;;;;;24.57;11.83;;;;;;;6.37;60.57;100075.34;4424769;32;19989;-75
2022/03/19 06:05:15;;;;;;;23.70;11.40;;;;;;;6.50;59.96;100074.59;4425054;32;20098;-75
2022/03/19 06:07:43;;;;;;;27.10;11.93;;;;;;;6.14;61.02;100069.22;4424562;32;20467;-75
2022/03/19 06:10:10;;;;;;;26.42;11.63;;;;;;;6.32;60.56;100069.34;4424655;32;20168;-75
2022/03/19 06:12:37;;;;;;;22.42;11.48;;;;;;;6.60;59.82;100063.56;4424796;32;20113;-75
2022/03/19 06:15:04;;;;;;;29.10;12.80;;;;;;;6.51;60.74;100071.19;4424406;32;20097;-75
2022/03/19 06:17:31;;;;;;;23.98;11.90;;;;;;;5.91;62.75;100074.16;4424605;32;20105;-75
2022/03/19 06:19:58;;;;;;;24.48;12.45;;;;;;;6.45;61.03;100076.25;4424501;32;20124;-75
2022/03/19 06:22:25;;;;;;;25.77;12.65;;;;;;;6.47;60.74;100074.56;4424289;32;20112;-75
2022/03/19 06:24:52;;;;;;;29.20;12.95;;;;;;;6.33;61.19;100074.50;4424662;32;20094;-75
2022/03/19 06:27:19;;;;;;;27.75;12.85;;;;;;;6.58;60.23;100064.37;4424543;32;20098;-75
2022/03/19 06:29:46;;;;;;;26.52;12.70;;;;;;;6.56;60.98;100069.50;4424228;32;20104;-75
2022/03/19 06:32:15;;;;;;;28.08;13.13;;;;;;;6.68;60.03;100069.56;4424532;32;20085;-75
2022/03/19 06:34:42;;;;;;;30.80;13.27;;;;;;;6.51;60.27;100067.75;4424444;32;20112;-75
2022/03/19 06:37:21;;;;;;;29.25;12.82;;;;;;;6.44;60.90;100066.00;4424097;32;20157;-75
2022/03/19 06:39:57;;;;;;;29.67;13.88;;;;;;;6.30;61.93;100066.78;4424207;32;20086;-75
2022/03/19 06:42:25;;;;;;;28.05;13.62;;;;;;;6.35;61.65;100064.22;4423918;32;20149;-75
2022/03/19 06:44:52;;;;;;;30.27;13.35;;;;;;;6.54;60.74;100060.09;4423914;32;20109;-75
2022/03/19 06:47:19;;;;;;;27.87;13.82;;;;;;;6.52;60.91;100059.22;4426464;32;20219;-75
2022/03/19 06:49:46;;;;;;;27.83;13.00;;;;;;;6.60;60.26;100060.13;4425847;32;20482;-75
2022/03/19 06:52:13;;;;;;;27.67;12.85;;;;;;;6.33;61.10;100071.91;4426506;32;20111;-75
2022/03/19 06:54:40;;;;;;;27.05;13.07;;;;;;;6.25;61.60;100063.31;4426303;32;20165;-75
2022/03/19 06:57:07;;;;;;;;;;;;;;;6.34;61.59;100053.13;4426273;32;20133;-75
2022/03/19 06:59:34;;;;;;;27.37;12.32;;;;;;;6.54;61.29;100058.38;4426270;32;20020;-75
2022/03/19 07:02:01;;;;;;;26.40;13.00;;;;;;;6.64;60.10;100061.84;4426203;32;20094;-75
2022/03/19 07:04:28;;;;;;;27.10;12.85;;;;;;;6.94;58.65;100061.13;4425647;32;20100;-75
2022/03/19 07:06:55;;;;;;;26.40;12.25;;;;;;;6.33;61.67;100066.78;4426175;32;20098;-75
2022/03/19 07:09:28;;;;;;;33.35;13.48;;;;;;;6.51;61.00;100068.63;4426191;32;20542;-75
2022/03/19 07:11:55;;;;;;;28.60;12.98;;;;;;;6.79;60.00;100067.03;4425919;32;20143;-75
2022/03/19 07:14:22;;;;;;;25.80;12.52;;;;;;;6.66;59.55;100068.69;4426106;32;20169;-75
2022/03/19 07:16:51;;;;;;;25.37;11.60;;;;;;;7.05;58.60;100066.31;4426150;32;20085;-75
2022/03/19 07:19:18;;;;;;;23.42;11.57;;;;;;;6.79;59.08;100066.19;4425726;32;20078;-75
2022/03/19 07:21:45;;;;;;;25.40;11.98;;;;;;;6.73;59.61;100068.75;4426070;32;20098;-75
2022/03/19 07:24:12;;;;;;;24.23;11.48;;;;;;;6.28;60.79;100072.75;4426064;32;20081;-76
2022/03/19 07:26:39;;;;;;;24.17;12.23;;;;;;;6.90;59.67;100075.63;4425939;32;20085;-75
2022/03/19 07:29:06;;;;;;;;;;;;;;;7.38;57.42;100073.25;4426331;32;20444;-75
2022/03/19 07:31:33;;;;;;;24.42;11.70;;;;;;;7.75;55.59;100066.44;4425747;32;20155;-75
2022/03/19 07:34:00;;;;;;;23.27;11.82;;;;;;;7.49;56.57;100072.41;4425924;32;20110;-75
2022/03/19 07:36:27;;;;;;;25.77;12.20;;;;;;;7.79;55.62;100068.19;4426027;32;20145;-75
2022/03/19 07:38:54;;;;;;;23.92;11.57;;;;;;;7.87;55.43;100068.16;4425578;32;20137;-76
2022/03/19 07:44:06;;;;;;;24.70;11.52;;;;;;;8.07;54.71;100074.16;4425866;32;20136;-75
2022/03/19 07:46:34;;;;;;;23.17;11.30;;;;;;;8.38;53.54;100075.88;4425632;32;20144;-75
2022/03/19 07:49:02;;;;;;;21.08;11.07;;;;;;;8.17;54.27;100070.72;4425815;32;20204;-76
2022/03/19 07:51:29;;;;;;;24.90;12.00;;;;;;;8.32;54.16;100072.44;4425988;32;20108;-75
2022/03/19 07:53:56;;;;;;;24.83;12.43;;;;;;;8.11;55.11;100075.91;4425477;32;20098;-75
2022/03/19 07:56:24;;;;;;;25.42;11.70;;;;;;;8.38;54.33;100075.03;4425630;32;20160;-75
2022/03/19 07:58:52;;;;;;;25.20;12.18;;;;;;;8.64;53.28;100075.84;4424640;32;20081;-76
2022/03/19 08:01:20;;;;;;;30.37;10.85;;;;;;;8.77;52.44;100084.37;4425233;32;20521;-75
2022/03/19 08:03:48;;;;;;;25.50;12.27;;;;;;;8.89;52.46;100076.59;4425572;32;20149;-75
2022/03/19 08:06:15;;;;;;;24.95;11.85;;;;;;;9.10;51.70;100079.97;4425864;32;20099;-75
2022/03/19 08:08:42;;;;;;;24.65;11.30;;;;;;;9.16;50.97;100074.81;4424259;32;20097;-76
2022/03/19 08:11:09;;;;;;;23.27;11.40;;;;;;;8.93;52.29;100072.28;4425781;32;20166;-75
2022/03/19 08:13:38;;;;;;;24.37;11.45;;;;;;;9.10;51.59;100072.25;4425346;32;20109;-76
2022/03/19 08:16:05;;;;;;;23.87;11.48;;;;;;;9.18;51.95;100070.50;4425688;32;20119;-75
2022/03/19 08:18:33;;;;;;;25.20;11.52;;;;;;;9.50;50.03;100072.88;4425770;32;20086;-75
2022/03/19 08:21:00;;;;;;;25.40;12.88;;;;;;;9.67;49.61;100077.91;4423949;32;20122;-75
2022/03/19 08:23:27;;;;;;;22.83;11.75;;;;;;;9.86;49.44;100076.94;4425773;32;20115;-75
2022/03/19 08:25:54;;;;;;;23.65;11.95;;;;;;;10.18;47.97;100074.06;4425699;32;20425;-76
2022/03/19 08:28:21;;;;;;;24.10;12.13;;;;;;;10.04;48.53;100074.22;4425275;32;20117;-76
2022/03/19 08:30:48;;;;;;;25.05;11.93;;;;;;;10.21;48.17;100073.19;4425446;32;20094;-76
2022/03/19 08:33:15;;;;;;;23.58;12.30;;;;;;;10.24;48.16;100079.22;4425644;32;20244;-76
2022/03/19 08:35:42;;;;;;;22.05;11.85;;;;;;;10.35;48.48;100072.25;4425293;32;20086;-76
2022/03/19 08:40:57;;;;;;;24.27;12.45;;;;;;;10.95;46.97;100066.41;4424530;32;20110;-76
2022/03/19 08:43:24;;;;;;;22.35;11.82;;;;;;;11.12;46.33;100066.22;4425236;32;20114;-76
2022/03/19 08:45:51;;;;;;;24.23;12.25;;;;;;;11.30;45.72;100069.41;4425523;32;20153;-76
2022/03/19 08:48:18;;;;;;;22.50;11.77;;;;;;;11.54;45.07;100068.22;4425587;32;20077;-76
2022/03/19 08:50:46;;;;;;;23.60;12.18;;;;;;;11.54;44.95;100064.78;4425101;32;20164;-76
2022/03/19 08:53:14;;;;;;;23.08;12.23;;;;;;;11.63;44.88;100074.13;4425282;32;20093;-76
2022/03/19 08:55:41;;;;;;;24.67;12.43;;;;;;;11.82;44.59;100062.66;4425273;32;20144;-76
2022/03/19 08:58:08;;;;;;;24.10;11.95;;;;;;;11.74;45.61;100064.47;4425484;32;20116;-76
2022/03/19 09:00:35;;;;;;;22.55;11.98;;;;;;;11.67;44.82;100068.88;4425193;32;20133;-76
2022/03/19 09:03:02;;;;;;;23.62;12.45;;;;;;;11.60;44.77;100064.69;4424906;32;20454;-76
2022/03/19 09:05:32;;;;;;;25.80;12.80;;;;;;;12.09;44.36;100063.94;4425441;32;20421;-76
2022/03/19 09:07:59;;;;;;;22.92;12.88;;;;;;;12.32;43.11;100066.12;4424647;32;20077;-76
2022/03/19 09:10:26;;;;;;;23.80;12.32;;;;;;;12.67;42.68;100057.72;4424880;32;20101;-76
2022/03/19 09:12:55;;;;;;;23.70;12.43;;;;;;;12.92;42.22;100061.53;4425329;32;20098;-76
2022/03/19 09:15:22;;;;;;;25.05;13.40;;;;;;;13.29;40.74;100056.47;4425320;32;20109;-76
2022/03/19 09:17:50;;;;;;;22.70;11.20;;;;;;;13.38;40.28;100065.75;4425055;32;20081;-76
2022/03/19 09:20:17;;;;;;;23.45;13.20;;;;;;;13.56;39.82;100062.75;4425100;32;20173;-76
2022/03/19 09:22:44;;;;;;;25.80;13.52;;;;;;;13.71;39.66;100063.28;4425291;32;20129;-76
2022/03/19 09:25:11;;;;;;;25.05;14.13;;;;;;;13.77;39.40;100060.56;4424938;32;20141;-76
2022/03/19 09:27:39;;;;;;;23.98;13.55;;;;;;;13.69;39.45;100059.88;4425296;32;20073;-76
2022/03/19 09:30:08;;;;;;;22.37;12.10;;;;;;;14.67;37.87;100064.34;4425125;32;20090;-76
2022/03/19 09:32:36;;;;;;;24.00;12.90;;;;;;;14.17;38.35;100063.03;4424834;32;20156;-76
2022/03/19 09:35:03;;;;;;;33.97;13.38;;;;;;;14.71;37.75;100055.56;4425084;32;20376;-76
2022/03/19 09:37:31;;;;;;;24.98;14.18;;;;;;;14.33;38.18;100061.75;4425117;32;20078;-76
2022/03/19 09:39:59;;;;;;;23.85;11.60;;;;;;;14.65;36.53;100065.25;4424811;32;20105;-76
2022/03/19 09:42:32;;;;;;;23.62;12.75;;;;;;;15.16;35.61;100064.69;4425054;32;20489;-76
2022/03/19 09:44:59;;;;;;;27.00;13.38;;;;;;;15.11;34.74;100059.62;4423801;32;20085;-76
2022/03/19 09:47:26;;;;;;;25.45;14.10;;;;;;;15.44;35.12;100057.78;4425088;32;20104;-76
2022/03/19 09:49:55;;;;;;;25.80;14.02;;;;;;;15.48;34.16;100061.13;4424951;32;20142;-76
2022/03/19 09:52:26;;;;;;;28.50;15.70;;;;;;;15.14;34.64;100056.94;4424585;32;20157;-76
2022/03/19 09:54:52;;;;;;;25.77;14.70;;;;;;;15.75;34.06;100057.69;4425110;32;20099;-76
2022/03/19 09:57:19;;;;;;;25.27;14.87;;;;;;;15.84;33.98;100057.41;4425025;32;20093;-76
2022/03/19 09:59:47;;;;;;;25.45;13.13;;;;;;;15.61;34.78;100052.06;4424458;32;20106;-76
2022/03/19 10:02:15;;;;;;;31.08;16.37;;;;;;;14.93;36.06;100060.16;4424805;32;20112;-76
2022/03/19 10:04:42;;;;;;;28.50;13.35;;;;;;;14.54;39.40;100068.16;4424750;32;20093;-76
2022/03/19 10:09:56;;;;;;;26.42;12.10;;;;;;;12.26;45.47;100054.16;4424874;32;20106;-76
2022/03/19 10:12:30;;;;;;;35.08;16.12;;;;;;;11.40;48.76;100061.53;4424631;32;20100;-75
2022/03/19 10:14:57;;;;;;;27.15;12.15;;;;;;;11.69;48.38;100066.25;4424402;32;20085;-76
2022/03/19 10:17:28;;;;;;;32.75;17.35;;;;;;;11.68;48.58;100064.56;4424079;32;20462;-76
2022/03/19 10:20:11;;;;;;;35.20;18.25;;;;;;;11.58;49.97;100056.09;4425500;32;20102;-75
2022/03/19 10:22:43;;;;;;;29.60;14.77;;;;;;;11.40;51.27;100071.88;4426519;32;20113;-76
2022/03/19 10:25:12;;;;;;;32.85;15.68;;;;;;;11.53;49.31;100071.69;4426523;32;20085;-76
2022/03/19 10:27:43;;;;;;;27.65;15.75;;;;;;;11.76;49.00;100067.91;4426243;32;20133;-76
2022/03/19 10:30:16;;;;;;;28.08;12.93;;;;;;;11.12;49.63;100064.47;4426400;32;20181;-76
2022/03/19 10:32:52;;;;;;;31.77;17.25;;;;;;;11.24;48.87;100071.22;4426413;32;20134;-76
2022/03/19 10:35:48;;;;;;;29.55;13.57;;;;;;;11.18;49.83;100067.00;4424973;32;20120;-76
2022/03/19 10:38:22;;;;;;;27.40;15.32;;;;;;;10.50;51.14;100073.81;4419488;32;20090;-76
2022/03/19 10:40:53;;;;;;;31.05;16.12;;;;;;;10.70;50.43;100069.28;4425919;32;20120;-76
2022/03/19 10:43:22;;;;;;;30.85;14.40;;;;;;;11.12;48.85;100074.81;4426458;32;20510;-75
2022/03/19 10:45:51;;;;;;;27.60;15.00;;;;;;;10.99;49.37;100068.09;4425180;32;20089;-76
2022/03/19 10:48:23;;;;;;;29.45;15.73;;;;;;;10.72;49.13;100069.28;4426042;32;20145;-76
2022/03/19 10:50:51;;;;;;;26.45;12.93;;;;;;;11.22;48.59;100071.25;4426089;32;20137;-76
2022/03/19 10:53:19;;;;;;;30.77;16.15;;;;;;;11.32;47.64;100059.06;4426375;32;20111;-76
2022/03/19 10:55:46;;;;;;;33.38;17.85;;;;;;;11.35;48.45;100069.34;4425928;32;20361;-76
2022/03/19 10:58:13;;;;;;;33.88;16.58;;;;;;;11.66;47.53;100061.16;4426282;32;20077;-75
2022/03/19 11:01:02;;;;;;;34.25;16.83;;;;;;;11.52;48.34;100059.62;4425941;32;20095;-76
2022/03/19 11:03:30;;;;;;;29.33;16.83;;;;;;;11.87;48.67;100053.94;4425675;32;20112;-76
2022/03/19 11:06:08;;;;;;;29.80;16.20;;;;;;;12.15;47.51;100059.53;4426287;32;20152;-75
2022/03/19 11:08:43;;;;;;;28.62;15.75;;;;;;;11.95;48.05;100051.25;4425129;32;20121;-75
2022/03/19 11:11:39;;;;;;;26.27;13.07;;;;;;;11.86;48.42;100051.38;4424777;32;20159;-76
2022/03/19 11:14:07;;;;;;;26.58;15.32;;;;;;;12.50;44.29;100041.66;4424650;32;20146;-76
2022/03/19 11:16:36;;;;;;;26.70;14.18;;;;;;;12.66;43.37;100037.91;4424570;32;20149;-76
2022/03/19 11:19:04;;;;;;;27.83;14.25;;;;;;;12.55;42.64;100038.09;4426117;32;20089;-76
2022/03/19 11:21:31;;;;;;;28.87;13.20;;;;;;;12.60;42.25;100031.09;4426063;32;20093;-76
2022/03/19 11:24:14;;;;;;;25.35;12.07;;;;;;;12.08;43.01;100038.94;4425690;32;20113;-76
2022/03/19 11:26:42;;;;;;;24.55;12.50;;;;;;;11.33;44.94;100031.47;4426262;32;20135;-76
2022/03/19 11:29:09;;;;;;;19.92;9.15;;;;;;;11.19;44.74;100037.69;4425984;32;20149;-75
2022/03/19 11:31:36;;;;;;;23.17;10.50;;;;;;;10.90;45.47;100032.91;4425306;32;20166;-76
2022/03/19 11:34:17;;;;;;;19.27;10.10;;;;;;;10.23;46.84;100025.06;4425989;32;20558;-75
2022/03/19 11:37:00;;;;;;;21.67;9.70;;;;;;;9.68;47.79;100035.84;4426114;32;20164;-75
2022/03/19 11:39:27;;;;;;;21.95;10.30;;;;;;;10.01;46.97;100037.28;4424845;32;20157;-75
2022/03/19 11:41:54;;;;;;;24.45;12.35;;;;;;;9.71;47.93;100034.09;4425862;32;20563;-75